Mesa, Arizona
Current Conditions -  °F | °C
As of 7:47 PM on Monday 26 Jan 2015 (Local Time) from KFFZ Reporting Station
Overcast Overcast  
Wind Chill: 63°   Ceiling: 10000
Heat Index: 63°   Visibility: 30mi
Dew Point: 32°   Wind: 5mph
Humidity: 32%   Direction: NA
Pressure: 30.12"   Gusts: NA
Location:  33.42°N, 111.83°W
Report Text: KFFZ 270247Z VRB04KT 30SM BKN100 OVC200 17/00 A3012 RMK WIND ESTIMATED
Loading
Personal Weather Stations






























Interactive Weather Map New forecast layout! Learn more

10-Day Weather Forecast

Advertisements
Track Severe Weather on mobile